sensor_id;sensor_type;location;lat;lon;timestamp;pressure;altitude;pressure_sealevel;temperature;humidity
22389;BME280;11362;48.102;11.620;2022-07-25T00:01:30;95266.81;;;26.28;44.34
22389;BME280;11362;48.102;11.620;2022-07-25T00:03:56;95258.47;;;26.28;44.68
22389;BME280;11362;48.102;11.620;2022-07-25T00:06:21;95260.03;;;26.29;44.21
22389;BME280;11362;48.102;11.620;2022-07-25T00:08:46;95247.34;;;26.28;44.81
22389;BME280;11362;48.102;11.620;2022-07-25T00:11:11;95249.34;;;26.28;44.48
22389;BME280;11362;48.102;11.620;2022-07-25T00:13:37;95255.69;;;26.28;44.74
22389;BME280;11362;48.102;11.620;2022-07-25T00:16:02;95251.69;;;26.29;44.38
22389;BME280;11362;48.102;11.620;2022-07-25T00:18:28;95245.34;;;26.29;44.79
22389;BME280;11362;48.102;11.620;2022-07-25T00:20:53;95249.34;;;26.28;44.64
22389;BME280;11362;48.102;11.620;2022-07-25T00:23:18;95251.34;;;26.27;44.67
22389;BME280;11362;48.102;11.620;2022-07-25T00:25:44;95238.22;;;26.28;44.54
22389;BME280;11362;48.102;11.620;2022-07-25T00:28:09;95238.97;;;26.28;44.47
22389;BME280;11362;48.102;11.620;2022-07-25T00:30:34;95247.34;;;26.28;44.62
22389;BME280;11362;48.102;11.620;2022-07-25T00:33:00;95235.44;;;26.28;44.74
22389;BME280;11362;48.102;11.620;2022-07-25T00:35:25;95236.19;;;26.28;44.59
22389;BME280;11362;48.102;11.620;2022-07-25T00:37:50;95238.97;;;26.28;44.82
22389;BME280;11362;48.102;11.620;2022-07-25T00:40:15;95242.22;;;26.27;44.77
22389;BME280;11362;48.102;11.620;2022-07-25T00:42:41;95231.84;;;26.27;44.80
22389;BME280;11362;48.102;11.620;2022-07-25T00:45:06;95230.28;;;26.26;44.96
22389;BME280;11362;48.102;11.620;2022-07-25T00:47:32;95226.28;;;26.27;44.80
22389;BME280;11362;48.102;11.620;2022-07-25T00:49:57;95224.72;;;26.26;44.68
22389;BME280;11362;48.102;11.620;2022-07-25T00:52:22;95231.06;;;26.27;44.72
22389;BME280;11362;48.102;11.620;2022-07-25T00:54:48;95227.50;;;26.26;44.98
22389;BME280;11362;48.102;11.620;2022-07-25T00:57:13;95219.94;;;26.27;44.88
22389;BME280;11362;48.102;11.620;2022-07-25T00:59:38;95218.34;;;26.26;44.92
22389;BME280;11362;48.102;11.620;2022-07-25T01:02:04;95217.59;;;26.25;44.56
22389;BME280;11362;48.102;11.620;2022-07-25T01:04:29;95219.16;;;26.26;44.58
22389;BME280;11362;48.102;11.620;2022-07-25T01:06:54;95215.56;;;26.26;44.98
22389;BME280;11362;48.102;11.620;2022-07-25T01:09:20;95217.59;;;26.25;45.04
22389;BME280;11362;48.102;11.620;2022-07-25T01:11:46;95214.38;;;26.27;44.32
22389;BME280;11362;48.102;11.620;2022-07-25T01:14:11;95211.22;;;26.25;44.43
22389;BME280;11362;48.102;11.620;2022-07-25T01:16:37;95212.00;;;26.25;45.03
22389;BME280;11362;48.102;11.620;2022-07-25T01:19:02;95214.78;;;26.25;45.00
22389;BME280;11362;48.102;11.620;2022-07-25T01:21:28;95216.03;;;26.24;45.12
22389;BME280;11362;48.102;11.620;2022-07-25T01:23:53;95213.22;;;26.24;45.03
22389;BME280;11362;48.102;11.620;2022-07-25T01:26:19;95211.69;;;26.23;44.69
22389;BME280;11362;48.102;11.620;2022-07-25T01:28:44;95207.66;;;26.24;45.05
22389;BME280;11362;48.102;11.620;2022-07-25T01:31:09;95201.75;;;26.22;44.89
22389;BME280;11362;48.102;11.620;2022-07-25T01:33:34;95206.09;;;26.23;44.88
22389;BME280;11362;48.102;11.620;2022-07-25T01:36:00;95192.94;;;26.24;44.72
22389;BME280;11362;48.102;11.620;2022-07-25T01:38:25;95196.19;;;26.22;45.15
22389;BME280;11362;48.102;11.620;2022-07-25T01:40:51;95192.94;;;26.24;44.72
22389;BME280;11362;48.102;11.620;2022-07-25T01:43:16;95194.97;;;26.23;44.92
22389;BME280;11362;48.102;11.620;2022-07-25T01:45:41;95196.19;;;26.22;45.10
22389;BME280;11362;48.102;11.620;2022-07-25T01:48:07;95194.59;;;26.21;44.80
22389;BME280;11362;48.102;11.620;2022-07-25T01:50:32;95191.81;;;26.21;44.82
22389;BME280;11362;48.102;11.620;2022-07-25T01:52:57;95189.03;;;26.21;44.87
22389;BME280;11362;48.102;11.620;2022-07-25T01:55:23;95185.47;;;26.21;45.31
22389;BME280;11362;48.102;11.620;2022-07-25T01:57:48;95180.34;;;26.19;45.18
22389;BME280;11362;48.102;11.620;2022-07-25T02:00:14;95174.78;;;26.19;45.06
22389;BME280;11362;48.102;11.620;2022-07-25T02:02:40;95178.34;;;26.20;44.99
22389;BME280;11362;48.102;11.620;2022-07-25T02:05:07;95185.91;;;26.19;45.04
22389;BME280;11362;48.102;11.620;2022-07-25T02:07:33;95183.13;;;26.19;45.19
22389;BME280;11362;48.102;11.620;2022-07-25T02:09:58;95177.56;;;26.19;45.26
22389;BME280;11362;48.102;11.620;2022-07-25T02:12:23;95177.56;;;26.19;45.29
22389;BME280;11362;48.102;11.620;2022-07-25T02:14:49;95175.56;;;26.20;45.00
22389;BME280;11362;48.102;11.620;2022-07-25T02:17:14;95169.19;;;26.19;45.33
22389;BME280;11362;48.102;11.620;2022-07-25T02:19:39;95168.44;;;26.19;45.27
22389;BME280;11362;48.102;11.620;2022-07-25T02:22:05;95164.84;;;26.18;44.86
22389;BME280;11362;48.102;11.620;2022-07-25T02:24:30;95166.84;;;26.18;44.99
22389;BME280;11362;48.102;11.620;2022-07-25T02:26:56;95162.06;;;26.18;45.22
22389;BME280;11362;48.102;11.620;2022-07-25T02:29:21;95160.09;;;26.19;45.30
22389;BME280;11362;48.102;11.620;2022-07-25T02:31:46;95160.09;;;26.19;45.07
22389;BME280;11362;48.102;11.620;2022-07-25T02:34:11;95152.91;;;26.18;45.25
22389;BME280;11362;48.102;11.620;2022-07-25T02:36:37;95145.78;;;26.17;45.31
22389;BME280;11362;48.102;11.620;2022-07-25T02:39:02;95151.38;;;26.17;45.03
22389;BME280;11362;48.102;11.620;2022-07-25T02:41:28;95153.72;;;26.18;45.19
22389;BME280;11362;48.102;11.620;2022-07-25T02:43:53;95155.72;;;26.18;45.42
22389;BME280;11362;48.102;11.620;2022-07-25T02:46:18;95154.94;;;26.17;45.14
22389;BME280;11362;48.102;11.620;2022-07-25T02:48:44;95145.03;;;26.16;45.34
22389;BME280;11362;48.102;11.620;2022-07-25T02:51:09;95153.38;;;26.16;45.39
22389;BME280;11362;48.102;11.620;2022-07-25T02:53:34;95161.28;;;26.18;45.07
22389;BME280;11362;48.102;11.620;2022-07-25T02:56:00;95156.94;;;26.17;45.08
22389;BME280;11362;48.102;11.620;2022-07-25T02:58:25;95158.94;;;26.16;45.34
22389;BME280;11362;48.102;11.620;2022-07-25T03:00:50;95157.38;;;26.15;45.38
22389;BME280;11362;48.102;11.620;2022-07-25T03:03:16;95157.38;;;26.15;45.11
22389;BME280;11362;48.102;11.620;2022-07-25T03:05:41;95155.38;;;26.16;45.28
22389;BME280;11362;48.102;11.620;2022-07-25T03:08:06;95160.59;;;26.14;44.85
22389;BME280;11362;48.102;11.620;2022-07-25T03:10:32;95160.16;;;26.15;45.12
22389;BME280;11362;48.102;11.620;2022-07-25T03:12:57;95160.16;;;26.15;45.25
22389;BME280;11362;48.102;11.620;2022-07-25T03:15:22;95157.03;;;26.13;45.21
22389;BME280;11362;48.102;11.620;2022-07-25T03:17:48;95160.59;;;26.14;45.12
22389;BME280;11362;48.102;11.620;2022-07-25T03:20:13;95157.03;;;26.13;45.07
22389;BME280;11362;48.102;11.620;2022-07-25T03:22:38;95152.69;;;26.12;45.13
22389;BME280;11362;48.102;11.620;2022-07-25T03:25:04;95159.81;;;26.13;45.16
22389;BME280;11362;48.102;11.620;2022-07-25T03:27:30;95163.81;;;26.12;45.11
22389;BME280;11362;48.102;11.620;2022-07-25T03:29:55;95161.03;;;26.12;45.31
22389;BME280;11362;48.102;11.620;2022-07-25T03:32:20;95169.38;;;26.12;45.06
22389;BME280;11362;48.102;11.620;2022-07-25T03:34:46;95151.13;;;26.11;45.37
22389;BME280;11362;48.102;11.620;2022-07-25T03:37:11;95156.69;;;26.11;45.30
22389;BME280;11362;48.102;11.620;2022-07-25T03:39:37;95155.13;;;26.10;45.26
22389;BME280;11362;48.102;11.620;2022-07-25T03:42:02;95153.09;;;26.11;45.13
22389;BME280;11362;48.102;11.620;2022-07-25T03:44:28;95152.34;;;26.10;45.11
22389;BME280;11362;48.102;11.620;2022-07-25T03:46:53;95149.56;;;26.10;45.16
22389;BME280;11362;48.102;11.620;2022-07-25T03:49:18;95149.56;;;26.10;45.18
22389;BME280;11362;48.102;11.620;2022-07-25T03:51:44;95155.13;;;26.10;45.31
22389;BME280;11362;48.102;11.620;2022-07-25T03:54:09;95145.22;;;26.09;45.11
22389;BME280;11362;48.102;11.620;2022-07-25T03:59:02;95148.75;;;26.10;45.18
22389;BME280;11362;48.102;11.620;2022-07-25T04:01:27;95145.22;;;26.09;45.22
22389;BME280;11362;48.102;11.620;2022-07-25T04:03:52;95142.44;;;26.09;45.17
22389;BME280;11362;48.102;11.620;2022-07-25T04:06:18;95148.75;;;26.10;45.21
22389;BME280;11362;48.102;11.620;2022-07-25T04:08:43;95154.31;;;26.10;44.87
22389;BME280;11362;48.102;11.620;2022-07-25T04:11:09;95150.78;;;26.09;44.99
22389;BME280;11362;48.102;11.620;2022-07-25T04:13:34;95141.63;;;26.09;45.05
22389;BME280;11362;48.102;11.620;2022-07-25T04:15:59;95150.78;;;26.09;45.16
22389;BME280;11362;48.102;11.620;2022-07-25T04:18:25;95147.19;;;26.09;45.06
22389;BME280;11362;48.102;11.620;2022-07-25T04:20:51;95135.28;;;26.08;45.17
22389;BME280;11362;48.102;11.620;2022-07-25T04:23:17;95137.63;;;26.10;45.04
22389;BME280;11362;48.102;11.620;2022-07-25T04:25:42;95136.06;;;26.09;45.07
22389;BME280;11362;48.102;11.620;2022-07-25T04:28:07;95141.63;;;26.09;44.74
22389;BME280;11362;48.102;11.620;2022-07-25T04:30:32;95136.84;;;26.09;45.21
22389;BME280;11362;48.102;11.620;2022-07-25T04:32:58;95136.84;;;26.09;45.13
22389;BME280;11362;48.102;11.620;2022-07-25T04:35:23;95128.50;;;26.09;44.83
22389;BME280;11362;48.102;11.620;2022-07-25T04:37:48;95126.50;;;26.10;45.37
22389;BME280;11362;48.102;11.620;2022-07-25T04:40:14;95132.84;;;26.10;44.88
22389;BME280;11362;48.102;11.620;2022-07-25T04:42:39;95126.50;;;26.10;45.21
22389;BME280;11362;48.102;11.620;2022-07-25T04:45:05;95132.06;;;26.10;44.96
22389;BME280;11362;48.102;11.620;2022-07-25T04:47:30;95125.72;;;26.09;45.11
22389;BME280;11362;48.102;11.620;2022-07-25T04:49:55;95128.03;;;26.11;45.05
22389;BME280;11362;48.102;11.620;2022-07-25T04:52:21;95132.84;;;26.10;45.17
22389;BME280;11362;48.102;11.620;2022-07-25T04:54:46;95124.50;;;26.10;45.46
22389;BME280;11362;48.102;11.620;2022-07-25T04:57:12;95128.84;;;26.11;44.94
22389;BME280;11362;48.102;11.620;2022-07-25T04:59:37;95122.47;;;26.11;44.98
22389;BME280;11362;48.102;11.620;2022-07-25T05:02:02;95126.50;;;26.10;45.05
22389;BME280;11362;48.102;11.620;2022-07-25T05:04:28;95115.34;;;26.10;45.35
22389;BME280;11362;48.102;11.620;2022-07-25T05:06:53;95116.91;;;26.11;44.96
22389;BME280;11362;48.102;11.620;2022-07-25T05:09:18;95115.34;;;26.10;45.10
22389;BME280;11362;48.102;11.620;2022-07-25T05:11:44;95116.91;;;26.11;44.90
22389;BME280;11362;48.102;11.620;2022-07-25T05:14:09;95112.13;;;26.11;45.31
22389;BME280;11362;48.102;11.620;2022-07-25T05:16:34;95111.34;;;26.11;44.94
22389;BME280;11362;48.102;11.620;2022-07-25T05:19:00;95110.56;;;26.10;45.30
22389;BME280;11362;48.102;11.620;2022-07-25T05:21:25;95117.72;;;26.11;45.13
22389;BME280;11362;48.102;11.620;2022-07-25T05:23:50;95106.56;;;26.11;45.16
22389;BME280;11362;48.102;11.620;2022-07-25T05:26:16;95111.25;;;26.14;45.00
22389;BME280;11362;48.102;11.620;2022-07-25T05:28:41;95107.59;;;26.17;45.48
22389;BME280;11362;48.102;11.620;2022-07-25T05:31:06;95106.72;;;26.20;45.11
22389;BME280;11362;48.102;11.620;2022-07-25T05:33:32;95106.72;;;26.20;45.25
22389;BME280;11362;48.102;11.620;2022-07-25T05:35:58;95115.88;;;26.21;45.35
22389;BME280;11362;48.102;11.620;2022-07-25T05:38:23;95108.28;;;26.21;45.42
22389;BME280;11362;48.102;11.620;2022-07-25T05:40:48;95107.09;;;26.22;45.38
22389;BME280;11362;48.102;11.620;2022-07-25T05:43:14;95113.41;;;26.23;45.31
22389;BME280;11362;48.102;11.620;2022-07-25T05:45:39;95114.22;;;26.23;45.52
22389;BME280;11362;48.102;11.620;2022-07-25T05:48:04;95111.44;;;26.23;45.78
22389;BME280;11362;48.102;11.620;2022-07-25T05:50:30;95117.00;;;26.23;46.12
22389;BME280;11362;48.102;11.620;2022-07-25T05:52:55;95107.69;;;26.14;46.32
22389;BME280;11362;48.102;11.620;2022-07-25T05:55:20;95117.81;;;26.08;46.37
22389;BME280;11362;48.102;11.620;2022-07-25T05:57:46;95113.13;;;26.05;46.37
22389;BME280;11362;48.102;11.620;2022-07-25T06:00:11;95107.63;;;26.01;46.42
22389;BME280;11362;48.102;11.620;2022-07-25T06:02:37;95103.63;;;25.86;47.07
22389;BME280;11362;48.102;11.620;2022-07-25T06:05:02;95103.00;;;25.79;46.97
22389;BME280;11362;48.102;11.620;2022-07-25T06:07:28;95109.00;;;25.77;47.08
22389;BME280;11362;48.102;11.620;2022-07-25T06:09:53;95100.47;;;25.84;47.41
22389;BME280;11362;48.102;11.620;2022-07-25T06:12:18;95104.66;;;25.76;47.15
22389;BME280;11362;48.102;11.620;2022-07-25T06:14:43;95103.97;;;25.72;47.09
22389;BME280;11362;48.102;11.620;2022-07-25T06:17:09;95110.66;;;25.75;47.26
22389;BME280;11362;48.102;11.620;2022-07-25T06:19:34;95109.63;;;25.69;47.91
22389;BME280;11362;48.102;11.620;2022-07-25T06:21:59;95101.88;;;25.76;47.60
22389;BME280;11362;48.102;11.620;2022-07-25T06:24:25;95103.59;;;25.70;47.51
22389;BME280;11362;48.102;11.620;2022-07-25T06:26:50;95100.91;;;25.67;47.43
22389;BME280;11362;48.102;11.620;2022-07-25T06:29:15;95104.31;;;25.74;47.45
22389;BME280;11362;48.102;11.620;2022-07-25T06:31:41;95102.66;;;25.77;47.57
22389;BME280;11362;48.102;11.620;2022-07-25T06:34:06;95105.00;;;25.78;47.43
22389;BME280;11362;48.102;11.620;2022-07-25T06:36:31;95104.75;;;25.73;47.60
22389;BME280;11362;48.102;11.620;2022-07-25T06:38:56;95091.81;;;25.66;47.87
22389;BME280;11362;48.102;11.620;2022-07-25T06:41:22;95098.50;;;25.69;47.95
22389;BME280;11362;48.102;11.620;2022-07-25T06:43:47;95092.06;;;25.72;47.78
22389;BME280;11362;48.102;11.620;2022-07-25T06:46:13;95090.66;;;25.80;47.60
22389;BME280;11362;48.102;11.620;2022-07-25T06:48:38;95081.00;;;25.84;47.48
22389;BME280;11362;48.102;11.620;2022-07-25T06:51:04;95092.50;;;25.86;47.54
22389;BME280;11362;48.102;11.620;2022-07-25T06:53:29;95083.69;;;25.88;47.68
22389;BME280;11362;48.102;11.620;2022-07-25T06:55:54;95080.13;;;25.87;48.02
22389;BME280;11362;48.102;11.620;2022-07-25T06:58:20;95079.28;;;25.90;47.74
22389;BME280;11362;48.102;11.620;2022-07-25T07:00:45;95080.09;;;25.91;47.42
22389;BME280;11362;48.102;11.620;2022-07-25T07:03:11;95072.06;;;25.93;47.64
22389;BME280;11362;48.102;11.620;2022-07-25T07:05:38;95078.31;;;25.97;47.33
22389;BME280;11362;48.102;11.620;2022-07-25T07:08:04;95081.00;;;26.00;47.51
22389;BME280;11362;48.102;11.620;2022-07-25T07:10:30;95074.25;;;26.01;46.95
22389;BME280;11362;48.102;11.620;2022-07-25T07:13:24;95072.56;;;26.04;47.07
22389;BME280;11362;48.102;11.620;2022-07-25T07:15:50;95074.16;;;26.05;47.26
22389;BME280;11362;48.102;11.620;2022-07-25T07:18:17;95065.34;;;26.06;47.15
22389;BME280;11362;48.102;11.620;2022-07-25T07:20:42;95065.34;;;26.06;46.95
22389;BME280;11362;48.102;11.620;2022-07-25T07:23:08;95066.91;;;26.07;47.40
22389;BME280;11362;48.102;11.620;2022-07-25T07:25:33;95063.69;;;26.09;46.84
22389;BME280;11362;48.102;11.620;2022-07-25T07:27:59;95068.03;;;26.10;47.02
22389;BME280;11362;48.102;11.620;2022-07-25T07:30:24;95059.69;;;26.10;47.00
22389;BME280;11362;48.102;11.620;2022-07-25T07:32:50;95055.66;;;26.11;46.89
22389;BME280;11362;48.102;11.620;2022-07-25T07:35:16;95060.38;;;26.14;46.67
22389;BME280;11362;48.102;11.620;2022-07-25T07:37:42;95066.72;;;26.14;46.79
22389;BME280;11362;48.102;11.620;2022-07-25T07:40:08;95057.16;;;26.15;47.06
22389;BME280;11362;48.102;11.620;2022-07-25T07:42:38;95063.50;;;26.16;46.99
22389;BME280;11362;48.102;11.620;2022-07-25T07:45:15;95059.47;;;26.17;46.92
22389;BME280;11362;48.102;11.620;2022-07-25T07:47:42;95056.28;;;26.18;47.06
22389;BME280;11362;48.102;11.620;2022-07-25T07:50:08;95064.97;;;26.20;46.93
22389;BME280;11362;48.102;11.620;2022-07-25T07:52:33;95046.25;;;26.21;46.91
22389;BME280;11362;48.102;11.620;2022-07-25T07:54:59;95051.75;;;26.24;46.73
22389;BME280;11362;48.102;11.620;2022-07-25T07:57:24;95052.88;;;26.27;46.66
22389;BME280;11362;48.102;11.620;2022-07-25T07:59:49;95053.63;;;26.27;46.49
22389;BME280;11362;48.102;11.620;2022-07-25T08:02:14;95053.19;;;26.29;46.74
22389;BME280;11362;48.102;11.620;2022-07-25T08:04:40;95058.34;;;26.30;46.87
22389;BME280;11362;48.102;11.620;2022-07-25T08:07:05;95065.47;;;26.31;46.77
22389;BME280;11362;48.102;11.620;2022-07-25T08:09:30;95063.00;;;26.33;47.30
22389;BME280;11362;48.102;11.620;2022-07-25T08:11:56;95057.44;;;26.33;46.91
22389;BME280;11362;48.102;11.620;2022-07-25T08:14:21;95059.78;;;26.35;47.23
22389;BME280;11362;48.102;11.620;2022-07-25T08:16:46;95049.41;;;26.35;46.90
22389;BME280;11362;48.102;11.620;2022-07-25T08:19:11;95045.41;;;26.36;47.28
22389;BME280;11362;48.102;11.620;2022-07-25T08:21:37;95039.84;;;26.36;47.11
22389;BME280;11362;48.102;11.620;2022-07-25T08:24:02;95038.66;;;26.37;47.09
22389;BME280;11362;48.102;11.620;2022-07-25T08:26:28;95036.63;;;26.38;47.35
22389;BME280;11362;48.102;11.620;2022-07-25T08:28:53;95032.59;;;26.39;47.21
22389;BME280;11362;48.102;11.620;2022-07-25T08:31:18;95034.16;;;26.40;47.12
22389;BME280;11362;48.102;11.620;2022-07-25T08:33:43;95033.75;;;26.41;47.15
22389;BME280;11362;48.102;11.620;2022-07-25T08:36:09;95030.94;;;26.41;47.14
22389;BME280;11362;48.102;11.620;2022-07-25T08:38:34;95033.31;;;26.43;47.03
22389;BME280;11362;48.102;11.620;2022-07-25T08:40:59;95020.94;;;26.44;47.21
22389;BME280;11362;48.102;11.620;2022-07-25T08:43:25;95025.28;;;26.45;47.20
22389;BME280;11362;48.102;11.620;2022-07-25T08:45:52;95026.06;;;26.45;47.36
22389;BME280;11362;48.102;11.620;2022-07-25T08:48:19;95024.84;;;26.46;47.26
22389;BME280;11362;48.102;11.620;2022-07-25T08:50:45;95028.41;;;26.47;47.31
22389;BME280;11362;48.102;11.620;2022-07-25T08:53:12;95022.06;;;26.46;46.99
22389;BME280;11362;48.102;11.620;2022-07-25T08:55:38;95027.97;;;26.48;47.53
22389;BME280;11362;48.102;11.620;2022-07-25T08:58:04;95021.63;;;26.48;47.43
22389;BME280;11362;48.102;11.620;2022-07-25T09:00:29;95018.38;;;26.49;47.82
22389;BME280;11362;48.102;11.620;2022-07-25T09:02:59;95017.66;;;26.61;46.87
22389;BME280;11362;48.102;11.620;2022-07-25T09:05:25;95019.94;;;26.79;46.44
22389;BME280;11362;48.102;11.620;2022-07-25T09:07:52;95011.56;;;26.91;46.01
22389;BME280;11362;48.102;11.620;2022-07-25T09:10:23;95013.47;;;26.94;45.88
22389;BME280;11362;48.102;11.620;2022-07-25T09:13:06;95016.38;;;27.03;46.00
22389;BME280;11362;48.102;11.620;2022-07-25T09:15:37;95008.78;;;26.91;45.86
22389;BME280;11362;48.102;11.620;2022-07-25T09:18:08;95007.56;;;26.80;46.26
22389;BME280;11362;48.102;11.620;2022-07-25T09:20:45;95001.75;;;26.74;46.49
22389;BME280;11362;48.102;11.620;2022-07-25T09:23:13;94998.28;;;26.70;46.43
22389;BME280;11362;48.102;11.620;2022-07-25T09:25:39;95000.75;;;26.68;46.64
22389;BME280;11362;48.102;11.620;2022-07-25T09:28:15;95000.75;;;26.68;47.12
22389;BME280;11362;48.102;11.620;2022-07-25T09:30:54;95005.97;;;26.66;46.83
22389;BME280;11362;48.102;11.620;2022-07-25T09:33:23;95008.78;;;26.66;47.20
22389;BME280;11362;48.102;11.620;2022-07-25T09:35:49;94997.63;;;26.66;46.87
22389;BME280;11362;48.102;11.620;2022-07-25T09:38:15;94993.25;;;26.65;46.90
22389;BME280;11362;48.102;11.620;2022-07-25T09:43:20;94994.84;;;26.66;47.36
22389;BME280;11362;48.102;11.620;2022-07-25T09:45:50;94992.06;;;26.66;47.14
22389;BME280;11362;48.102;11.620;2022-07-25T09:48:17;94997.63;;;26.66;47.00
22389;BME280;11362;48.102;11.620;2022-07-25T09:50:43;94994.03;;;26.66;47.43
22389;BME280;11362;48.102;11.620;2022-07-25T09:53:08;94994.84;;;26.66;47.02
22389;BME280;11362;48.102;11.620;2022-07-25T09:55:33;94994.03;;;26.66;47.20
22389;BME280;11362;48.102;11.620;2022-07-25T09:57:59;94980.91;;;26.66;47.02
22389;BME280;11362;48.102;11.620;2022-07-25T10:00:26;94992.06;;;26.66;47.38
22389;BME280;11362;48.102;11.620;2022-07-25T10:03:09;94992.50;;;26.65;47.51
22389;BME280;11362;48.102;11.620;2022-07-25T10:08:39;94996.03;;;26.65;47.41
22389;BME280;11362;48.102;11.620;2022-07-25T10:11:05;94974.53;;;26.66;47.00
22389;BME280;11362;48.102;11.620;2022-07-25T10:13:32;94981.69;;;26.67;47.11
22389;BME280;11362;48.102;11.620;2022-07-25T10:15:58;94980.91;;;26.66;47.08
22389;BME280;11362;48.102;11.620;2022-07-25T10:18:26;94983.13;;;26.71;46.26
22389;BME280;11362;48.102;11.620;2022-07-25T10:21:15;94972.56;;;26.91;44.96
22389;BME280;11362;48.102;11.620;2022-07-25T10:23:40;94966.22;;;27.03;44.34
22389;BME280;11362;48.102;11.620;2022-07-25T10:26:08;94956.94;;;27.06;43.87
22389;BME280;11362;48.102;11.620;2022-07-25T10:28:50;94970.09;;;26.93;44.44
22389;BME280;11362;48.102;11.620;2022-07-25T10:31:16;94971.53;;;26.85;44.50
22389;BME280;11362;48.102;11.620;2022-07-25T10:33:45;94972.88;;;26.81;44.68
22389;BME280;11362;48.102;11.620;2022-07-25T10:36:11;94956.59;;;26.79;44.91
22389;BME280;11362;48.102;11.620;2022-07-25T10:38:38;94955.94;;;26.75;45.30
22389;BME280;11362;48.102;11.620;2022-07-25T10:41:04;94962.28;;;26.76;45.34
22389;BME280;11362;48.102;11.620;2022-07-25T10:43:36;94962.75;;;26.74;44.95
22389;BME280;11362;48.102;11.620;2022-07-25T10:46:10;94937.31;;;26.72;44.90
22389;BME280;11362;48.102;11.620;2022-07-25T10:48:36;94943.25;;;26.74;44.97
22389;BME280;11362;48.102;11.620;2022-07-25T10:51:05;94944.38;;;26.77;44.89
22389;BME280;11362;48.102;11.620;2022-07-25T10:53:34;94936.09;;;26.73;44.97
22389;BME280;11362;48.102;11.620;2022-07-25T10:56:08;94918.16;;;26.74;44.83
22389;BME280;11362;48.102;11.620;2022-07-25T10:58:45;94937.66;;;26.74;44.96
22389;BME280;11362;48.102;11.620;2022-07-25T11:01:11;94930.53;;;26.73;45.15
22389;BME280;11362;48.102;11.620;2022-07-25T11:03:37;94936.09;;;26.73;45.35
22389;BME280;11362;48.102;11.620;2022-07-25T11:06:02;94919.38;;;26.73;45.35
22389;BME280;11362;48.102;11.620;2022-07-25T11:08:32;94915.81;;;26.73;45.18
22389;BME280;11362;48.102;11.620;2022-07-25T11:10:58;94928.94;;;26.72;45.51
22389;BME280;11362;48.102;11.620;2022-07-25T11:13:24;94928.94;;;26.72;44.98
22389;BME280;11362;48.102;11.620;2022-07-25T11:15:50;94921.81;;;26.71;45.13
22389;BME280;11362;48.102;11.620;2022-07-25T11:18:15;94927.41;;;26.71;45.05
22389;BME280;11362;48.102;11.620;2022-07-25T11:20:40;94938.53;;;26.71;45.28
22389;BME280;11362;48.102;11.620;2022-07-25T11:23:06;94932.22;;;26.71;45.03
22389;BME280;11362;48.102;11.620;2022-07-25T11:25:31;94909.13;;;26.70;45.40
22389;BME280;11362;48.102;11.620;2022-07-25T11:27:58;94933.44;;;26.70;45.03
22389;BME280;11362;48.102;11.620;2022-07-25T11:30:24;94914.69;;;26.70;45.22
22389;BME280;11362;48.102;11.620;2022-07-25T11:32:52;94913.13;;;26.69;45.14
22389;BME280;11362;48.102;11.620;2022-07-25T11:35:28;94924.28;;;26.69;44.96
22389;BME280;11362;48.102;11.620;2022-07-25T11:37:55;94916.72;;;26.70;44.75
22389;BME280;11362;48.102;11.620;2022-07-25T11:40:21;94918.72;;;26.69;44.84
22389;BME280;11362;48.102;11.620;2022-07-25T11:42:51;94903.22;;;26.68;44.79
22389;BME280;11362;48.102;11.620;2022-07-25T11:45:19;94897.66;;;26.68;44.37
22389;BME280;11362;48.102;11.620;2022-07-25T11:47:46;94894.88;;;26.68;44.48
22389;BME280;11362;48.102;11.620;2022-07-25T11:50:11;94916.34;;;26.68;44.64
22389;BME280;11362;48.102;11.620;2022-07-25T11:52:37;94874.00;;;26.85;42.18
22389;BME280;11362;48.102;11.620;2022-07-25T11:55:04;94907.78;;;26.87;42.12
22389;BME280;11362;48.102;11.620;2022-07-25T11:57:32;94889.28;;;26.81;41.87
22389;BME280;11362;48.102;11.620;2022-07-25T11:59:59;94889.72;;;26.79;42.39
22389;BME280;11362;48.102;11.620;2022-07-25T12:02:27;94894.97;;;26.77;42.45
22389;BME280;11362;48.102;11.620;2022-07-25T12:04:58;94885.16;;;26.73;42.58
22389;BME280;11362;48.102;11.620;2022-07-25T12:07:41;94896.75;;;26.71;42.61
22389;BME280;11362;48.102;11.620;2022-07-25T12:10:09;94876.13;;;26.69;42.90
22389;BME280;11362;48.102;11.620;2022-07-25T12:12:43;94875.34;;;26.68;42.81
22389;BME280;11362;48.102;11.620;2022-07-25T12:15:10;94871.78;;;26.68;43.18
22389;BME280;11362;48.102;11.620;2022-07-25T12:17:36;94869.47;;;26.66;42.92
22389;BME280;11362;48.102;11.620;2022-07-25T12:20:03;94869.47;;;26.66;43.30
22389;BME280;11362;48.102;11.620;2022-07-25T12:22:28;94866.69;;;26.66;43.20
22389;BME280;11362;48.102;11.620;2022-07-25T12:24:53;94863.88;;;26.66;43.39
22389;BME280;11362;48.102;11.620;2022-07-25T12:27:19;94851.94;;;26.66;43.42
22389;BME280;11362;48.102;11.620;2022-07-25T12:29:44;94859.50;;;26.65;43.25
22389;BME280;11362;48.102;11.620;2022-07-25T12:32:09;94846.38;;;26.66;43.22
22389;BME280;11362;48.102;11.620;2022-07-25T12:34:35;94857.53;;;26.66;43.10
22389;BME280;11362;48.102;11.620;2022-07-25T12:37:00;94856.72;;;26.65;43.41
22389;BME280;11362;48.102;11.620;2022-07-25T12:39:25;94851.16;;;26.65;43.49
22389;BME280;11362;48.102;11.620;2022-07-25T12:41:51;94876.59;;;26.67;42.84
22389;BME280;11362;48.102;11.620;2022-07-25T12:44:16;94868.50;;;26.94;40.51
22389;BME280;11362;48.102;11.620;2022-07-25T12:46:41;94870.38;;;27.22;38.96
22389;BME280;11362;48.102;11.620;2022-07-25T12:49:06;94870.69;;;27.37;38.77
22389;BME280;11362;48.102;11.620;2022-07-25T12:51:32;94863.63;;;27.45;38.12
22389;BME280;11362;48.102;11.620;2022-07-25T12:53:57;94865.38;;;27.51;38.04